This is the latest recevied weather packets stored in our database for station/object JH7UAX-10. If no packets are shown the sender has not sent any weather packets the latest 10 day(s).
| Time | Temp. | Humidity | Pressure | Rain* | Wind** | Luminosity | Snow |
|---|---|---|---|---|---|---|---|
| 1788600555 | 19.44° C | 82% | 1029.2 hPa | 0 mm | - | - | - |
| 1788598755 | 20.56° C | 80% | 1028.6 hPa | 0 mm | - | - | - |
| 1788597854 | 21.11° C | 79% | 1028.5 hPa | 0 mm | - | - | - |
| 1788596055 | 21.67° C | 77% | 1028.4 hPa | 0 mm | - | - | - |
| 1788595153 | 22.22° C | 76% | 1028.3 hPa | 0 mm | - | - | - |
| 1788594254 | 22.78° C | 75% | 1028.2 hPa | 0 mm | - | - | - |
| 1788593354 | 23.33° C | 73% | 1028.1 hPa | 0 mm | - | - | - |
| 1788592454 | 23.33° C | 73% | 1028 hPa | 0 mm | - | - | - |
| 1788591556 | 23.89° C | 71% | 1027.9 hPa | 0 mm | - | - | - |
| 1788590654 | 23.89° C | 72% | 1027.8 hPa | 0 mm | - | - | - |
| 1788589755 | 22.78° C | 75% | 1027.7 hPa | 0 mm | - | - | - |
| 1788588856 | 23.33° C | 72% | 1027.6 hPa | 0 mm | - | - | - |
| 1788587955 | 25° C | 67% | 1027.5 hPa | 0 mm | - | - | - |
| 1788557355 | 15.56° C | 96% | 1027.3 hPa | 0 mm | - | - | - |
| 1788554656 | 15° C | 96% | 1027.1 hPa | 0 mm | - | - | - |
| 1788553755 | 15° C | 96% | 1027 hPa | 0 mm | - | - | - |
| 1788552856 | 15° C | 96% | 1027.1 hPa | 0 mm | - | - | - |
| 1788550155 | 15.56° C | 95% | 1026.6 hPa | 0 mm | - | - | - |
| 1788549254 | 15.56° C | 95% | 1026.6 hPa | 0 mm | - | - | - |
| 1788548354 | 15.56° C | 95% | 1026.4 hPa | 0 mm | - | - | - |
| 1788545655 | 15.56° C | 95% | 1026.3 hPa | 0 mm | - | - | - |
| 1788541155 | 15.56° C | 94% | 1026.4 hPa | 0 mm | - | - | - |
| 1788539356 | 15.56° C | 95% | 1026.2 hPa | 0 mm | - | - | - |
| 1788538454 | 15.56° C | 95% | 1026.1 hPa | 0 mm | - | - | - |
| 1788537556 | 15.56° C | 94% | 1026.4 hPa | 0 mm | - | - | - |
* Rain latest hour (hover to see other rain measurements)
** Current wind speed in m/s (hover to see current wind gust speed)